Time;durP1;ratioP1;P1;durP2;ratioP2;P2;SDS_P1;SDS_P2;PMS_P1;PMS_P2;Temp;Humidity;BMP_temperature;BMP_pressure;BME280_temperature;BME280_humidity;BME280_pressure;Samples;Min_cycle;Max_cycle;Signal;HPM_P1;HPM_P2
2021/10/02 00:41:35;;;;;;;1.15;0.43;;;;;;;19.12;57.37;101190.22;4761537;30;20117;-84
2021/10/02 00:46:47;;;;;;;1.20;0.60;;;;;;;19.10;57.16;101190.25;4772843;30;20119;-84
2021/10/02 00:49:12;;;;;;;0.88;0.47;;;;;;;19.10;57.46;101189.38;4741540;30;20035;-84
2021/10/02 00:51:40;;;;;;;0.70;0.50;;;;;;;19.11;57.37;101188.50;4741774;30;20042;-84
2021/10/02 00:54:05;;;;;;;1.10;0.60;;;;;;;19.10;57.29;101192.84;4756208;30;20476;-85
2021/10/02 00:56:31;;;;;;;1.45;0.60;;;;;;;19.09;57.55;101196.31;4756378;30;20042;-84
2021/10/02 00:58:59;;;;;;;1.27;0.50;;;;;;;19.09;57.45;101192.84;4726846;30;20036;-84
2021/10/02 01:01:31;;;;;;;1.08;0.68;;;;;;;19.08;57.18;101191.13;4756333;30;20042;-84
2021/10/02 01:04:10;;;;;;;1.03;0.53;;;;;;;19.09;57.36;101195.47;4755908;30;20032;-84
2021/10/02 01:07:14;;;;;;;0.80;0.50;;;;;;;19.08;57.42;101212.88;4755838;30;20040;-85
2021/10/02 01:10:11;;;;;;;;;;;;;;;19.08;57.55;101219.84;4756673;30;20389;-87
2021/10/02 01:12:37;;;;;;;1.48;0.63;;;;;;;19.08;57.33;101230.28;4756242;30;19980;-86
2021/10/02 01:15:08;;;;;;;1.20;0.70;;;;;;;19.05;57.35;101220.72;4756769;30;20438;-86
2021/10/02 01:18:00;;;;;;;2.33;0.40;;;;;;;19.06;57.36;101222.44;4761814;30;20027;-86
2021/10/02 01:21:02;;;;;;;1.00;0.50;;;;;;;19.05;57.46;101219.84;4768889;30;20107;-87
2021/10/02 01:29:59;;;;;;;0.90;0.50;;;;;;;19.00;57.47;101199.03;4781460;30;20126;-85
2021/10/02 01:32:34;;;;;;;1.38;0.60;;;;;;;19.01;57.44;101198.16;4759473;30;20116;-87
2021/10/02 01:52:52;;;;;;;1.17;0.60;;;;;;;19.03;57.43;101180.75;4785549;29;20047;-83
2021/10/02 01:55:19;;;;;;;0.73;0.52;;;;;;;19.03;57.24;101177.25;4781197;30;20038;-84
2021/10/02 01:57:57;;;;;;;1.15;0.52;;;;;;;19.02;57.37;101175.53;4762041;30;20036;-86
2021/10/02 02:00:23;;;;;;;1.23;0.50;;;;;;;19.03;57.49;101174.66;4772397;30;20036;-84
2021/10/02 02:02:55;;;;;;;1.02;0.60;;;;;;;19.02;57.36;101175.53;4755718;30;20552;-83
2021/10/02 02:05:23;;;;;;;0.82;0.50;;;;;;;19.03;57.52;101174.66;4755497;30;20042;-83
2021/10/02 02:07:53;;;;;;;0.65;0.40;;;;;;;19.02;57.86;101176.41;4740831;30;20407;-84
2021/10/02 02:10:20;;;;;;;1.08;0.43;;;;;;;19.02;57.33;101171.19;4755477;30;20123;-85
2021/10/02 02:12:49;;;;;;;0.63;0.40;;;;;;;19.03;57.63;101170.31;4755162;30;20035;-84
2021/10/02 02:15:18;;;;;;;1.23;0.40;;;;;;;19.02;57.45;101165.13;4755155;30;20031;-84
2021/10/02 02:17:51;;;;;;;0.60;0.30;;;;;;;19.03;57.47;101170.31;4740712;30;20099;-84
2021/10/02 02:20:36;;;;;;;;;;;;;;;19.03;57.50;101172.03;4755241;30;20059;-85
2021/10/02 02:23:03;;;;;;;1.25;0.60;;;;;;;19.03;57.51;101174.66;4755261;30;19918;-84
2021/10/02 02:25:29;;;;;;;0.85;0.50;;;;;;;19.02;57.59;101170.31;4755116;30;20031;-83
2021/10/02 02:27:56;;;;;;;1.40;0.47;;;;;;;19.01;57.37;101168.59;4756378;30;20043;-84
2021/10/02 02:30:22;;;;;;;1.52;0.50;;;;;;;19.00;57.48;101166.88;4760895;30;20028;-84
2021/10/02 02:32:47;;;;;;;1.30;0.50;;;;;;;19.00;57.37;101162.50;4764939;30;20039;-84
2021/10/02 02:35:13;;;;;;;0.82;0.43;;;;;;;19.01;57.56;101168.59;4766066;30;20079;-83
2021/10/02 02:37:39;;;;;;;0.88;0.50;;;;;;;19.01;57.50;101153.81;4749080;30;20043;-85
2021/10/02 02:40:06;;;;;;;0.90;0.52;;;;;;;19.00;57.37;101153.84;4741116;30;20047;-84
2021/10/02 02:42:37;;;;;;;0.88;0.47;;;;;;;19.00;57.33;101153.84;4754950;30;20082;-84
2021/10/02 02:45:03;;;;;;;1.15;0.50;;;;;;;18.99;57.39;101145.16;4740762;30;20480;-84
2021/10/02 02:47:32;;;;;;;0.80;0.50;;;;;;;18.99;57.40;101150.38;4740159;30;20059;-84
2021/10/02 02:50:26;;;;;;;0.63;0.47;;;;;;;18.99;57.35;101147.75;4754702;30;20480;-84
2021/10/02 02:52:58;;;;;;;0.50;0.40;;;;;;;18.98;57.65;101139.94;4754944;30;20438;-84
2021/10/02 02:55:26;;;;;;;0.80;0.40;;;;;;;18.96;57.35;101134.72;4754902;30;20166;-85
2021/10/02 02:57:59;;;;;;;1.13;0.40;;;;;;;18.96;57.42;101137.34;4757441;30;20024;-85
2021/10/02 03:00:30;;;;;;;0.57;0.32;;;;;;;18.98;57.48;101143.41;4759425;30;20031;-86
2021/10/02 03:03:07;;;;;;;0.93;0.40;;;;;;;18.95;57.69;101138.22;4743374;30;20500;-85
2021/10/02 03:05:37;;;;;;;0.60;0.40;;;;;;;18.95;57.39;101143.44;4743435;30;20039;-85
2021/10/02 03:10:59;;;;;;;0.95;0.43;;;;;;;18.96;57.40;101131.28;4778310;30;20079;-85
2021/10/02 03:13:30;;;;;;;0.57;0.50;;;;;;;18.96;57.57;101131.28;4761337;30;20024;-86
2021/10/02 03:15:56;;;;;;;1.40;0.60;;;;;;;18.93;57.60;101131.31;4761147;30;20036;-85
2021/10/02 03:18:25;;;;;;;0.80;0.55;;;;;;;18.95;57.57;101145.19;4760124;30;20468;-86
2021/10/02 03:20:53;;;;;;;0.88;0.45;;;;;;;18.92;57.40;101138.25;4745500;30;20083;-85
2021/10/02 03:23:20;;;;;;;1.92;0.40;;;;;;;18.95;57.43;101148.66;4747347;30;20032;-85
2021/10/02 03:25:46;;;;;;;1.15;0.55;;;;;;;18.95;57.56;101146.06;4760776;30;20471;-85
2021/10/02 03:28:12;;;;;;;1.23;0.50;;;;;;;18.95;57.39;101140.00;4760934;30;20039;-86
2021/10/02 03:30:38;;;;;;;0.55;0.40;;;;;;;18.96;57.64;101142.56;4761817;30;20023;-86
2021/10/02 03:33:04;;;;;;;0.73;0.40;;;;;;;18.95;57.54;101135.63;4777495;30;20028;-85
2021/10/02 03:35:30;;;;;;;0.93;0.40;;;;;;;18.96;57.50;101139.09;4759475;30;20061;-85
2021/10/02 03:37:55;;;;;;;0.50;0.40;;;;;;;18.96;57.45;101139.09;4745868;30;20036;-85
2021/10/02 03:40:40;;;;;;;1.10;0.43;;;;;;;18.95;57.35;101142.59;4745974;30;20126;-86
2021/10/02 03:43:05;;;;;;;0.63;0.38;;;;;;;18.93;57.37;101134.78;4763568;30;20040;-85
2021/10/02 03:45:49;;;;;;;0.90;0.50;;;;;;;18.90;57.32;101135.69;4761534;30;20111;-84
2021/10/02 03:48:19;;;;;;;1.35;0.47;;;;;;;18.90;57.63;101137.41;4778276;30;20043;-85
2021/10/02 03:50:44;;;;;;;0.60;0.40;;;;;;;18.89;57.51;101127.88;4765191;30;20035;-86
2021/10/02 03:53:10;;;;;;;1.00;0.40;;;;;;;18.92;57.28;101138.25;4783619;30;20019;-84
2021/10/02 03:55:36;;;;;;;1.25;0.70;;;;;;;18.91;57.58;101141.75;4738845;30;20031;-83
2021/10/02 03:58:02;;;;;;;1.52;0.60;;;;;;;18.91;57.54;101136.53;4744372;30;20492;-83
2021/10/02 04:00:27;;;;;;;0.90;0.50;;;;;;;18.93;57.53;101139.13;4758184;30;20047;-84
2021/10/02 04:02:52;;;;;;;1.30;0.57;;;;;;;18.91;57.39;101132.19;4758079;30;20492;-84
2021/10/02 04:05:18;;;;;;;0.85;0.40;;;;;;;18.90;57.50;101133.06;4757661;30;20035;-83
2021/10/02 04:07:43;;;;;;;0.60;0.40;;;;;;;18.90;57.35;101126.97;4743359;30;20055;-83
2021/10/02 04:10:09;;;;;;;0.50;0.40;;;;;;;18.92;57.54;101125.22;4742565;30;20119;-83
2021/10/02 04:12:35;;;;;;;0.50;0.43;;;;;;;18.92;57.40;101127.81;4757752;30;20400;-83
2021/10/02 04:15:00;;;;;;;0.45;0.40;;;;;;;18.90;57.32;101121.75;4757369;30;20042;-83
2021/10/02 04:17:25;;;;;;;1.38;0.55;;;;;;;18.90;57.12;101126.97;4757150;30;20387;-83
2021/10/02 04:19:51;;;;;;;1.70;0.30;;;;;;;18.89;57.50;101125.25;4742404;30;20098;-84
2021/10/02 04:22:16;;;;;;;0.63;0.47;;;;;;;18.89;57.26;101130.47;4756614;30;20047;-83
2021/10/02 04:24:42;;;;;;;0.63;0.40;;;;;;;18.90;57.54;101137.41;4757898;30;20044;-84
2021/10/02 04:27:08;;;;;;;0.73;0.40;;;;;;;18.88;57.25;101141.78;4758055;30;20488;-83
2021/10/02 04:29:34;;;;;;;0.75;0.50;;;;;;;18.89;57.50;101143.50;4757108;30;20028;-83
2021/10/02 04:31:59;;;;;;;1.20;0.50;;;;;;;18.88;57.44;101139.19;4742384;30;20089;-83
2021/10/02 04:34:24;;;;;;;1.38;0.43;;;;;;;18.88;57.36;101124.41;4742203;30;20070;-83
2021/10/02 04:36:50;;;;;;;1.83;0.57;;;;;;;18.88;57.36;101119.19;4757101;30;20466;-84
2021/10/02 04:39:15;;;;;;;0.90;0.60;;;;;;;18.88;57.38;101116.56;4746487;30;20054;-84
2021/10/02 04:41:41;;;;;;;0.95;0.63;;;;;;;18.88;57.50;101110.50;4766291;30;20086;-87
2021/10/02 04:44:06;;;;;;;3.50;0.60;;;;;;;18.89;57.56;101117.44;4751836;30;20067;-86
2021/10/02 04:46:32;;;;;;;0.75;0.38;;;;;;;18.89;57.71;101120.91;4777319;30;20035;-85
2021/10/02 04:48:57;;;;;;;0.75;0.50;;;;;;;18.89;57.30;101120.03;4742825;30;20092;-82
2021/10/02 04:51:23;;;;;;;1.02;0.70;;;;;;;18.89;57.50;101117.44;4758541;30;20047;-83
2021/10/02 04:53:48;;;;;;;0.70;0.40;;;;;;;18.88;57.49;101113.97;4741712;30;20086;-84
2021/10/02 04:56:14;;;;;;;1.20;0.50;;;;;;;18.90;57.31;101119.16;4746805;30;20042;-88
2021/10/02 05:08:48;;;;;;;1.40;0.60;;;;;;;18.88;57.33;101098.31;4782999;30;20043;-89
2021/10/02 05:11:13;;;;;;;0.90;0.50;;;;;;;18.88;57.47;101094.84;4763925;30;20384;-87
2021/10/02 05:13:39;;;;;;;1.15;0.60;;;;;;;18.87;57.34;101100.94;4753394;30;20040;-86
2021/10/02 05:16:04;;;;;;;0.57;0.40;;;;;;;18.89;57.50;101107.00;4753348;30;20031;-87
2021/10/02 05:18:30;;;;;;;0.70;0.50;;;;;;;18.88;57.33;101106.16;4751910;30;20092;-87
2021/10/02 05:20:56;;;;;;;1.25;0.50;;;;;;;18.86;57.38;101107.91;4753873;30;20039;-87
2021/10/02 05:23:22;;;;;;;0.65;0.50;;;;;;;18.87;57.52;101112.22;4753104;30;20024;-89
2021/10/02 05:25:47;;;;;;;1.08;0.50;;;;;;;18.84;57.44;101109.66;4749591;30;20048;-86
2021/10/02 05:28:13;;;;;;;1.20;0.40;;;;;;;18.86;57.54;101114.88;4749150;30;20071;-83
2021/10/02 05:30:38;;;;;;;0.82;0.40;;;;;;;18.84;57.33;101112.28;4741403;30;20081;-83
2021/10/02 05:33:04;;;;;;;1.25;0.50;;;;;;;18.84;57.68;101103.59;4740424;30;20459;-83
2021/10/02 05:35:31;;;;;;;0.65;0.40;;;;;;;18.84;57.48;101107.06;4740996;30;20032;-82
2021/10/02 05:37:57;;;;;;;0.70;0.50;;;;;;;18.85;57.50;101106.16;4757118;30;20032;-85
2021/10/02 05:40:23;;;;;;;0.88;0.57;;;;;;;18.86;57.47;101112.25;4755952;30;20463;-81
2021/10/02 05:42:48;;;;;;;1.00;0.50;;;;;;;18.85;57.31;101098.34;4755099;30;20052;-80
2021/10/02 05:45:13;;;;;;;0.75;0.40;;;;;;;18.84;57.50;101106.19;4740935;30;20107;-81
2021/10/02 05:47:39;;;;;;;1.27;0.60;;;;;;;18.85;57.52;101110.53;4771293;30;20028;-84
2021/10/02 05:50:05;;;;;;;1.20;0.70;;;;;;;18.82;57.29;101103.59;4755724;30;20032;-82
2021/10/02 05:52:30;;;;;;;0.90;0.52;;;;;;;18.83;57.70;101096.63;4771503;30;20095;-84
2021/10/02 05:54:56;;;;;;;2.35;0.60;;;;;;;18.84;57.42;101099.22;4755842;30;20044;-83
2021/10/02 05:57:21;;;;;;;1.10;0.60;;;;;;;18.83;57.58;101097.47;4755460;30;20082;-85
2021/10/02 05:59:47;;;;;;;1.55;0.70;;;;;;;18.86;57.50;101096.63;4740850;30;20502;-84
2021/10/02 06:02:13;;;;;;;1.33;0.70;;;;;;;18.86;57.47;101094.00;4755250;30;20050;-84
2021/10/02 06:04:38;;;;;;;2.92;0.60;;;;;;;18.88;57.48;101107.91;4755146;30;20040;-84
2021/10/02 06:07:04;;;;;;;0.73;0.50;;;;;;;18.89;57.51;101107.00;4740417;30;20040;-84
2021/10/02 06:09:29;;;;;;;1.10;0.60;;;;;;;18.90;57.23;101109.59;4755231;30;20036;-83
2021/10/02 06:11:55;;;;;;;1.42;0.65;;;;;;;18.91;57.56;101103.50;4754890;30;20028;-85
2021/10/02 06:14:21;;;;;;;1.52;0.52;;;;;;;18.95;57.58;101113.91;4754911;30;20038;-85
2021/10/02 06:16:46;;;;;;;1.70;0.55;;;;;;;18.96;57.36;101108.66;4755185;30;20506;-83
2021/10/02 06:19:11;;;;;;;0.70;0.50;;;;;;;18.98;57.21;101111.25;4725930;30;20039;-85
2021/10/02 06:21:37;;;;;;;1.00;0.55;;;;;;;18.96;57.29;101100.81;4741687;30;20057;-85
2021/10/02 06:24:03;;;;;;;1.10;0.60;;;;;;;18.97;57.27;101106.94;4739012;30;20209;-86
2021/10/02 06:26:32;;;;;;;0.73;0.50;;;;;;;18.96;57.32;101106.03;4758960;30;20126;-84
2021/10/02 06:28:58;;;;;;;0.68;0.40;;;;;;;18.97;57.18;101107.78;4765057;30;20038;-85
2021/10/02 06:31:23;;;;;;;2.78;0.70;;;;;;;18.98;57.28;101100.81;4741585;30;20118;-86
2021/10/02 06:33:49;;;;;;;1.20;0.60;;;;;;;18.98;57.18;101093.84;4741695;30;20094;-87
2021/10/02 06:36:15;;;;;;;0.95;0.60;;;;;;;18.97;57.17;101110.41;4755990;30;20038;-85
2021/10/02 06:38:40;;;;;;;2.80;0.73;;;;;;;18.97;57.12;101102.56;4755244;30;20027;-86
2021/10/02 06:41:07;;;;;;;1.55;0.80;;;;;;;18.97;57.17;101104.31;4755465;30;20058;-85
2021/10/02 06:43:33;;;;;;;1.48;0.68;;;;;;;18.98;57.05;101103.44;4754923;30;20032;-84
2021/10/02 06:45:59;;;;;;;2.15;0.50;;;;;;;18.98;57.31;101095.59;4755186;30;20028;-85
2021/10/02 06:48:24;;;;;;;1.23;0.65;;;;;;;18.97;57.27;101093.88;4740459;30;20067;-84
2021/10/02 06:50:50;;;;;;;1.45;0.60;;;;;;;18.96;57.12;101081.72;4755297;30;20044;-84
2021/10/02 06:53:15;;;;;;;1.10;0.60;;;;;;;18.98;57.27;101082.56;4740106;30;20031;-87
2021/10/02 06:55:42;;;;;;;3.53;0.60;;;;;;;18.99;57.10;101076.44;4739952;30;20040;-85
2021/10/02 06:58:07;;;;;;;0.65;0.55;;;;;;;19.02;57.00;101073.81;4754573;30;20031;-85
2021/10/02 07:00:34;;;;;;;0.88;0.50;;;;;;;19.05;57.19;101072.06;4739846;30;20487;-86
2021/10/02 07:02:59;;;;;;;2.53;0.80;;;;;;;19.01;57.24;101062.53;4740078;30;20126;-85
2021/10/02 07:05:25;;;;;;;1.02;0.47;;;;;;;19.05;57.29;101072.06;4754491;30;20110;-85
2021/10/02 07:07:50;;;;;;;0.98;0.55;;;;;;;19.04;57.50;101074.69;4754570;30;20499;-85
2021/10/02 07:10:17;;;;;;;1.05;0.60;;;;;;;19.03;57.49;101071.22;4754539;30;20429;-85
2021/10/02 07:12:43;;;;;;;2.00;0.70;;;;;;;19.05;57.11;101069.44;4755090;30;20217;-86
2021/10/02 07:15:09;;;;;;;1.23;0.60;;;;;;;19.14;56.90;101071.09;4754819;30;20135;-84
2021/10/02 07:17:34;;;;;;;1.30;0.60;;;;;;;19.18;56.91;101069.28;4754396;30;20095;-82
2021/10/02 07:19:59;;;;;;;0.85;0.43;;;;;;;19.23;56.90;101077.94;4754639;30;20031;-86
2021/10/02 07:22:25;;;;;;;1.40;0.60;;;;;;;19.21;57.02;101064.03;4754298;30;20079;-86
2021/10/02 07:24:50;;;;;;;1.73;0.60;;;;;;;19.23;56.60;101054.44;4739652;30;20035;-86
2021/10/02 07:27:16;;;;;;;3.70;0.80;;;;;;;19.29;56.93;101072.59;4770391;30;20115;-87
2021/10/02 07:29:41;;;;;;;10.05;1.60;;;;;;;19.36;56.94;101074.28;4740083;30;20043;-89
2021/10/02 07:32:06;;;;;;;11.40;1.70;;;;;;;19.51;57.31;101075.78;4756088;30;20043;-91
2021/10/02 07:34:32;;;;;;;10.93;1.95;;;;;;;19.80;56.63;101074.56;4741426;30;20448;-88
2021/10/02 07:36:58;;;;;;;15.65;2.42;;;;;;;20.16;55.66;101065.25;4740970;30;20032;-85
2021/10/02 07:39:23;;;;;;;14.10;2.33;;;;;;;20.42;54.80;101066.56;4739768;30;20119;-87
2021/10/02 07:41:49;;;;;;;13.25;2.13;;;;;;;20.57;54.34;101062.81;4739576;30;20064;-87
2021/10/02 07:44:18;;;;;;;8.35;2.25;;;;;;;20.67;53.63;101051.34;4739680;30;20078;-85
2021/10/02 07:46:51;;;;;;;12.10;2.10;;;;;;;20.58;54.11;101051.50;4754204;30;20027;-86
2021/10/02 07:49:18;;;;;;;11.38;2.08;;;;;;;20.60;53.78;101047.09;4754000;30;20080;-85
2021/10/02 07:51:45;;;;;;;6.95;1.73;;;;;;;20.66;53.29;101054.84;4753882;30;20040;-85
2021/10/02 07:54:11;;;;;;;8.27;2.13;;;;;;;20.69;53.07;101054.78;4769738;30;20059;-86
2021/10/02 07:56:38;;;;;;;6.90;1.90;;;;;;;20.71;53.20;101053.03;4741224;30;20036;-85
2021/10/02 07:59:07;;;;;;;15.10;2.40;;;;;;;20.54;53.65;101066.38;4757140;30;20039;-85
2021/10/02 08:01:35;;;;;;;6.60;1.98;;;;;;;20.59;53.34;101061.94;4773190;30;20031;-86
2021/10/02 08:04:05;;;;;;;7.25;1.90;;;;;;;20.64;53.09;101056.63;4757161;30;20081;-87
2021/10/02 08:06:33;;;;;;;6.07;1.88;;;;;;;20.54;53.23;101055.91;4757087;30;20036;-88
2021/10/02 08:09:02;;;;;;;6.07;2.08;;;;;;;20.64;53.04;101054.00;4742599;30;20067;-87
2021/10/02 08:11:28;;;;;;;7.45;2.17;;;;;;;20.66;52.67;101042.63;4772950;30;20038;-86
2021/10/02 08:13:54;;;;;;;6.10;1.90;;;;;;;20.57;52.99;101036.69;4757115;30;20024;-83
2021/10/02 08:16:21;;;;;;;5.85;2.00;;;;;;;20.54;53.05;101037.59;4757293;30;20379;-82
2021/10/02 08:18:48;;;;;;;10.88;1.95;;;;;;;20.44;53.31;101034.28;4742045;30;20054;-82
2021/10/02 08:21:14;;;;;;;5.47;1.88;;;;;;;20.39;53.43;101020.44;4741984;30;20039;-85
2021/10/02 08:23:42;;;;;;;5.97;1.88;;;;;;;20.27;53.93;101021.53;4756696;30;20114;-86
2021/10/02 08:26:07;;;;;;;4.45;1.85;;;;;;;20.13;54.28;101029.59;4772986;30;20063;-88
2021/10/02 08:28:33;;;;;;;5.78;1.77;;;;;;;20.10;54.40;101018.38;4742228;30;20040;-80
2021/10/02 08:31:01;;;;;;;6.13;2.08;;;;;;;20.08;54.21;101020.16;4772476;30;20039;-81
2021/10/02 08:33:27;;;;;;;3.65;1.50;;;;;;;20.09;54.30;101021.84;4756557;30;20032;-88
2021/10/02 08:35:52;;;;;;;6.97;1.75;;;;;;;20.19;53.93;101022.56;4742059;30;20038;-89
2021/10/02 08:38:18;;;;;;;3.65;1.60;;;;;;;20.31;53.58;101027.56;4727666;30;20036;-89
2021/10/02 08:40:45;;;;;;;5.20;1.70;;;;;;;20.41;53.23;101023.03;4727542;30;20031;-87
2021/10/02 08:43:12;;;;;;;4.95;1.83;;;;;;;20.48;52.83;101014.19;4727301;30;20052;-87
2021/10/02 08:45:38;;;;;;;3.85;1.33;;;;;;;20.36;53.28;101015.28;4742080;30;20040;-88
2021/10/02 08:48:04;;;;;;;4.35;1.67;;;;;;;20.30;53.58;101012.78;4741905;30;20491;-90
2021/10/02 08:50:31;;;;;;;4.15;1.58;;;;;;;20.33;53.39;101008.34;4756544;30;20032;-87
2021/10/02 08:52:56;;;;;;;4.03;1.55;;;;;;;20.39;53.29;100998.69;4756417;30;20530;-85
2021/10/02 08:55:23;;;;;;;5.30;1.80;;;;;;;20.33;53.50;100997.03;4741821;30;20099;-87
2021/10/02 08:57:50;;;;;;;3.00;1.60;;;;;;;20.23;53.70;100995.47;4756526;30;20058;-88
2021/10/02 09:00:20;;;;;;;4.05;1.60;;;;;;;20.21;53.83;100986.78;4745087;30;20032;-89
2021/10/02 09:02:46;;;;;;;5.35;2.10;;;;;;;20.24;53.54;100981.53;4768085;30;20036;-91
2021/10/02 09:05:13;;;;;;;6.97;1.83;;;;;;;20.28;53.46;100975.38;4758978;30;20116;-89
2021/10/02 09:07:38;;;;;;;4.50;1.55;;;;;;;20.30;53.73;100978.81;4765572;30;20062;-90
2021/10/02 09:10:07;;;;;;;4.13;1.40;;;;;;;20.31;53.42;100975.28;4760510;30;20031;-90
2021/10/02 09:12:33;;;;;;;7.47;1.88;;;;;;;20.32;53.21;100990.97;4760607;30;20035;-90
2021/10/02 09:15:02;;;;;;;7.63;1.75;;;;;;;20.20;53.79;100983.31;4756952;30;20036;-90
2021/10/02 09:17:29;;;;;;;4.72;1.70;;;;;;;20.14;54.11;100986.03;4756890;30;20036;-90
2021/10/02 09:19:55;;;;;;;5.20;1.73;;;;;;;20.16;54.14;100979.03;4727689;30;20066;-88
2021/10/02 09:22:22;;;;;;;6.15;1.50;;;;;;;20.21;53.86;100986.78;4756586;30;20063;-89
2021/10/02 09:24:49;;;;;;;4.65;1.40;;;;;;;20.21;54.07;100986.78;4727076;30;20046;-88
2021/10/02 09:27:29;;;;;;;4.13;1.55;;;;;;;20.29;54.01;100982.28;4772340;30;20386;-88
2021/10/02 09:29:57;;;;;;;3.47;1.55;;;;;;;20.31;53.80;100972.69;4763662;30;20028;-89
2021/10/02 09:32:29;;;;;;;4.00;1.45;;;;;;;20.12;54.70;100965.19;4790403;30;20012;-86
2021/10/02 09:34:58;;;;;;;5.03;1.70;;;;;;;19.57;61.21;100983.50;4756651;30;20032;-81
2021/10/02 09:37:34;;;;;;;7.80;1.90;;;;;;;19.26;65.40;100990.03;4755704;30;20085;-81
2021/10/02 09:40:04;;;;;;;4.65;1.60;;;;;;;19.13;64.89;100971.97;4755913;30;20549;-83
2021/10/02 09:42:38;;;;;;;6.20;2.00;;;;;;;19.10;64.46;100971.13;4755321;30;20569;-83
2021/10/02 09:45:11;;;;;;;3.35;1.70;;;;;;;19.00;64.06;100960.84;4771855;30;20035;-82
2021/10/02 09:47:38;;;;;;;3.93;1.77;;;;;;;18.94;66.53;100973.94;4771985;30;20556;-82
2021/10/02 09:50:15;;;;;;;5.88;1.85;;;;;;;18.96;65.33;100966.97;4772073;30;20642;-84
2021/10/02 09:52:46;;;;;;;4.80;1.80;;;;;;;18.87;65.83;100976.63;4760811;30;20480;-84
2021/10/02 09:55:32;;;;;;;5.10;1.88;;;;;;;18.84;65.69;100963.66;4767714;30;20387;-86
2021/10/02 09:58:10;;;;;;;6.63;1.88;;;;;;;18.82;65.51;100948.91;4763653;30;20039;-83
2021/10/02 10:00:38;;;;;;;7.43;1.98;;;;;;;18.81;65.48;100953.25;4785719;30;20050;-84
2021/10/02 10:03:10;;;;;;;2.80;1.67;;;;;;;18.83;64.52;100959.28;4778435;30;20027;-84
2021/10/02 10:05:38;;;;;;;4.93;1.88;;;;;;;18.85;65.76;100957.53;4755664;30;20032;-82
2021/10/02 10:08:06;;;;;;;4.90;1.67;;;;;;;18.88;65.47;100967.09;4756258;30;20043;-81
2021/10/02 10:10:35;;;;;;;5.90;1.70;;;;;;;18.89;65.41;100955.75;4740681;30;20389;-82
2021/10/02 10:13:03;;;;;;;4.15;1.77;;;;;;;18.92;64.87;100942.66;4755619;30;20051;-87
2021/10/02 10:15:30;;;;;;;5.63;1.90;;;;;;;18.90;64.85;100941.81;4755318;30;20038;-87
2021/10/02 10:17:56;;;;;;;4.32;1.60;;;;;;;18.92;64.12;100934.84;4755081;30;20035;-86
2021/10/02 10:20:43;;;;;;;2.97;1.40;;;;;;;18.90;65.18;100932.28;4771041;30;20035;-87
2021/10/02 10:23:11;;;;;;;4.20;1.60;;;;;;;18.91;64.07;100920.09;4756758;30;20491;-86
2021/10/02 10:25:51;;;;;;;4.50;1.60;;;;;;;18.91;64.51;100917.50;4756450;30;20046;-84
2021/10/02 10:28:19;;;;;;;3.90;1.63;;;;;;;18.94;64.18;100919.19;4756109;30;20093;-86
2021/10/02 10:30:47;;;;;;;6.10;1.60;;;;;;;18.88;64.21;100905.38;4756020;30;20051;-86
2021/10/02 10:33:14;;;;;;;3.83;1.42;;;;;;;18.93;62.20;100897.47;4740885;30;20062;-87
2021/10/02 10:35:46;;;;;;;2.67;1.38;;;;;;;18.93;61.87;100889.66;4755198;30;20133;-85
2021/10/02 10:38:15;;;;;;;4.07;1.60;;;;;;;18.89;63.63;100885.34;4754933;30;20032;-85
2021/10/02 10:40:41;;;;;;;3.33;1.40;;;;;;;18.86;64.40;100874.97;4754689;30;20126;-86
2021/10/02 10:43:07;;;;;;;4.05;1.58;;;;;;;18.83;65.07;100870.66;4739311;30;20143;-85
2021/10/02 10:45:36;;;;;;;3.78;1.58;;;;;;;18.86;63.50;100878.44;4770715;30;20066;-84
2021/10/02 10:48:05;;;;;;;4.10;1.77;;;;;;;18.88;62.51;100883.66;4751927;30;20035;-85
2021/10/02 10:50:33;;;;;;;5.30;1.70;;;;;;;18.86;63.72;100874.97;4769545;30;20024;-86
2021/10/02 10:53:01;;;;;;;2.58;1.42;;;;;;;18.89;61.91;100878.38;4754441;30;20024;-86
2021/10/02 10:55:26;;;;;;;2.67;1.38;;;;;;;18.88;62.72;100874.06;4754006;30;20027;-85
2021/10/02 10:57:54;;;;;;;2.90;1.30;;;;;;;18.90;63.68;100871.41;4754787;30;20039;-84
2021/10/02 11:06:57;;;;;;;11.20;3.60;;;;;;;19.04;65.29;100845.16;4775170;30;20055;-92
2021/10/02 11:09:44;;;;;;;7.25;2.92;;;;;;;18.99;64.30;100845.22;4772660;30;20036;-89
2021/10/02 11:12:15;;;;;;;6.32;2.45;;;;;;;18.96;63.79;100833.97;4756732;30;20072;-90
2021/10/02 11:14:46;;;;;;;5.68;2.20;;;;;;;18.93;63.52;100829.69;4742486;30;20035;-89
2021/10/02 11:17:13;;;;;;;5.15;2.10;;;;;;;18.93;63.57;100827.06;4756990;30;20036;-87
2021/10/02 11:19:40;;;;;;;6.47;2.35;;;;;;;18.95;63.75;100830.50;4759423;30;20392;-89
2021/10/02 11:22:57;;;;;;;3.03;1.98;;;;;;;18.91;63.48;100827.06;4756394;30;20442;-87
2021/10/02 11:25:24;;;;;;;5.63;2.28;;;;;;;18.93;63.78;100821.84;4759909;30;20074;-88
2021/10/02 11:27:50;;;;;;;4.30;2.20;;;;;;;18.91;63.88;100821.88;4727767;30;20084;-87
2021/10/02 11:30:18;;;;;;;3.22;2.00;;;;;;;18.94;63.41;100802.69;4742482;30;20123;-86
2021/10/02 11:32:44;;;;;;;4.07;2.53;;;;;;;18.89;63.66;100804.53;4747446;30;20036;-88
2021/10/02 11:35:24;;;;;;;3.45;2.00;;;;;;;18.91;63.36;100807.97;4746391;30;20047;-87
2021/10/02 11:38:00;;;;;;;3.63;2.03;;;;;;;18.93;63.32;100797.53;4760842;30;20035;-89
2021/10/02 11:40:31;;;;;;;4.13;1.80;;;;;;;18.95;63.78;100788.78;4762667;30;20057;-91
2021/10/02 11:49:41;;;;;;;5.03;2.05;;;;;;;18.94;63.63;100734.91;4778642;30;20071;-90
2021/10/02 11:52:17;;;;;;;5.53;2.10;;;;;;;18.95;63.72;100733.19;4760454;30;20095;-87
2021/10/02 11:54:42;;;;;;;3.22;1.90;;;;;;;18.93;64.18;100740.16;4762508;30;20078;-88
2021/10/02 11:57:15;;;;;;;5.43;1.95;;;;;;;18.92;63.58;100739.28;4745862;30;20039;-89
2021/10/02 12:00:05;;;;;;;2.83;1.80;;;;;;;18.87;64.96;100734.13;4760956;30;20027;-90
2021/10/02 12:02:31;;;;;;;6.30;2.10;;;;;;;18.88;63.53;100727.19;4749636;30;20094;-81
2021/10/02 12:04:57;;;;;;;2.95;2.00;;;;;;;18.93;63.38;100724.50;4742486;30;20125;-79
2021/10/02 12:07:22;;;;;;;3.80;2.20;;;;;;;18.96;62.56;100708.81;4742720;30;20128;-80
2021/10/02 12:09:57;;;;;;;5.78;2.08;;;;;;;18.98;62.66;100699.22;4727829;30;20063;-84
2021/10/02 12:12:23;;;;;;;10.55;2.28;;;;;;;18.97;63.61;100693.13;4756924;30;20028;-81
2021/10/02 12:14:56;;;;;;;5.65;1.90;;;;;;;19.01;63.49;100687.00;4757177;30;20036;-81
2021/10/02 12:17:22;;;;;;;8.18;2.28;;;;;;;19.01;63.56;100683.50;4756920;30;20127;-81
2021/10/02 12:19:48;;;;;;;6.22;2.20;;;;;;;18.97;64.35;100677.50;4742129;30;20403;-81
2021/10/02 12:22:13;;;;;;;4.93;2.78;;;;;;;18.93;64.35;100673.22;4742065;30;20458;-81
2021/10/02 12:24:39;;;;;;;3.95;2.33;;;;;;;18.94;63.69;100672.31;4756959;30;20070;-79
2021/10/02 12:27:14;;;;;;;3.85;2.17;;;;;;;18.89;63.76;100669.78;4756928;30;20054;-81
2021/10/02 12:29:51;;;;;;;4.18;2.50;;;;;;;18.90;64.31;100662.81;4756772;30;20039;-80
2021/10/02 12:32:20;;;;;;;5.55;2.53;;;;;;;18.90;64.54;100647.19;4756587;30;20027;-83
2021/10/02 12:34:58;;;;;;;6.88;2.70;;;;;;;19.02;63.63;100633.94;4742559;30;20393;-82
2021/10/02 12:37:34;;;;;;;10.43;2.90;;;;;;;19.14;63.96;100624.16;4772691;30;20024;-91
2021/10/02 12:40:06;;;;;;;10.38;3.33;;;;;;;19.24;63.93;100623.09;4742615;30;20031;-89
2021/10/02 12:42:35;;;;;;;7.28;2.67;;;;;;;19.25;64.38;100628.28;4756268;30;20052;-89
2021/10/02 12:45:23;;;;;;;10.68;2.92;;;;;;;19.25;64.20;100617.84;4756823;30;20035;-88
2021/10/02 12:48:00;;;;;;;7.00;2.80;;;;;;;19.29;64.84;100605.56;4757000;30;20032;-88
2021/10/02 13:01:03;;;;;;;7.75;2.65;;;;;;;19.14;65.24;100580.69;5101683;27;1537375;-90
2021/10/02 13:03:29;;;;;;;5.95;2.70;;;;;;;19.10;65.40;100582.47;5099853;27;20062;-80
2021/10/02 13:06:00;;;;;;;6.53;2.85;;;;;;;19.18;64.18;100556.22;5152356;27;20030;-78
2021/10/02 13:08:25;;;;;;;9.50;3.75;;;;;;;19.24;65.09;100547.44;5133606;27;20046;-78
2021/10/02 13:10:51;;;;;;;9.73;4.25;;;;;;;19.24;64.22;100550.03;5147149;27;20094;-79
2021/10/02 13:13:22;;;;;;;7.85;3.53;;;;;;;19.21;65.41;100552.72;5152378;27;20103;-87
2021/10/02 13:15:51;;;;;;;10.40;4.13;;;;;;;19.21;64.56;100545.75;5100508;27;20035;-88